createdAt,value
2022-11-24T00:01:13.167Z,6.57
2022-11-24T00:03:40.367Z,7.32
2022-11-24T00:06:15.349Z,5.03
2022-11-24T00:08:44.632Z,7.53
2022-11-24T00:11:15.408Z,6.25
2022-11-24T00:13:43.194Z,4.70
2022-11-24T00:16:11.861Z,5.30
2022-11-24T00:18:40.369Z,6.20
2022-11-24T00:21:07.663Z,6.72
2022-11-24T00:23:35.637Z,7.43
2022-11-24T00:26:10.320Z,7.57
2022-11-24T00:28:38.328Z,6.95
2022-11-24T00:31:17.161Z,5.65
2022-11-24T00:33:45.426Z,6.85
2022-11-24T00:36:12.559Z,7.70
2022-11-24T00:38:39.649Z,7.20
2022-11-24T00:41:07.032Z,5.60
2022-11-24T00:43:34.273Z,6.10
2022-11-24T00:46:01.375Z,6.38
2022-11-24T00:48:28.850Z,4.95
2022-11-24T00:51:10.269Z,5.60
2022-11-24T00:53:37.835Z,7.45
2022-11-24T00:56:05.888Z,6.78
2022-11-24T00:58:33.846Z,7.25
2022-11-24T01:01:06.586Z,5.88
2022-11-24T01:03:34.424Z,6.05
2022-11-24T01:06:10.385Z,7.18
2022-11-24T01:08:38.548Z,6.60
2022-11-24T01:11:25.545Z,5.60
2022-11-24T01:13:55.709Z,5.40
2022-11-24T01:16:24.419Z,6.32
2022-11-24T01:18:52.277Z,6.80
2022-11-24T01:21:19.527Z,3.83
2022-11-24T01:23:46.864Z,5.80
2022-11-24T01:26:19.860Z,6.40
2022-11-24T01:28:47.938Z,5.65
2022-11-24T01:31:16.346Z,6.47
2022-11-24T01:33:43.544Z,7.88
2022-11-24T01:36:10.583Z,6.15
2022-11-24T01:38:37.708Z,7.53
2022-11-24T01:41:06.234Z,5.85
2022-11-24T01:43:34.212Z,6.53
2022-11-24T01:46:16.446Z,5.38
2022-11-24T01:48:49.395Z,5.20
2022-11-24T01:51:27.032Z,4.53
2022-11-24T01:53:59.666Z,6.72
2022-11-24T01:58:59.293Z,5.90
2022-11-24T02:01:27.961Z,6.72
2022-11-24T02:03:56.494Z,5.05
2022-11-24T02:06:27.567Z,6.38
2022-11-24T02:08:59.633Z,5.97
2022-11-24T02:11:30.979Z,4.93
2022-11-24T02:13:58.185Z,5.47
2022-11-24T02:16:25.860Z,5.30
2022-11-24T02:18:53.282Z,5.15
2022-11-24T02:21:20.322Z,4.88
2022-11-24T02:23:47.307Z,6.03
2022-11-24T02:26:41.609Z,6.45
2022-11-24T02:29:10.552Z,5.88
2022-11-24T02:31:39.051Z,6.25
2022-11-24T02:34:06.166Z,4.95
2022-11-24T02:36:33.150Z,5.72
2022-11-24T02:39:00.144Z,6.68
2022-11-24T02:41:29.006Z,4.93
2022-11-24T02:43:58.720Z,6.22
2022-11-24T02:46:26.197Z,5.53
2022-11-24T02:48:53.609Z,5.78
2022-11-24T02:51:20.644Z,4.97
2022-11-24T02:53:47.654Z,5.05
2022-11-24T02:56:14.667Z,5.18
2022-11-24T02:58:41.658Z,5.53
2022-11-24T03:01:08.988Z,5.78
2022-11-24T03:03:36.164Z,6.05
2022-11-24T03:06:03.181Z,5.35
2022-11-24T03:08:30.440Z,6.20
2022-11-24T03:10:57.440Z,5.28
2022-11-24T03:13:24.530Z,4.93
2022-11-24T03:15:51.558Z,4.30
2022-11-24T03:18:18.853Z,5.47
2022-11-24T03:20:45.970Z,5.28
2022-11-24T03:23:12.963Z,4.90
2022-11-24T03:25:40.064Z,4.22
2022-11-24T03:28:07.248Z,4.93
2022-11-24T03:30:34.311Z,5.65
2022-11-24T03:33:01.239Z,3.55
2022-11-24T03:35:28.311Z,4.35
2022-11-24T03:37:55.330Z,5.72
2022-11-24T03:40:22.451Z,5.60
2022-11-24T03:42:49.525Z,5.63
2022-11-24T03:46:12.466Z,5.30
2022-11-24T03:48:03.734Z,4.97
2022-11-24T03:50:30.814Z,5.13
2022-11-24T03:52:58.082Z,5.38
2022-11-24T03:55:25.130Z,5.10
2022-11-24T03:57:52.140Z,5.85
2022-11-24T04:00:19.279Z,4.72
2022-11-24T04:02:46.396Z,4.25
2022-11-24T04:05:13.484Z,5.40
2022-11-24T04:07:40.764Z,4.53
2022-11-24T04:10:08.134Z,5.45
2022-11-24T04:12:44.148Z,4.60
2022-11-24T04:15:13.586Z,6.35
2022-11-24T04:17:40.914Z,6.05
2022-11-24T04:20:09.371Z,5.53
2022-11-24T04:22:36.656Z,5.53
2022-11-24T04:25:04.599Z,5.07
2022-11-24T04:27:33.830Z,6.30
2022-11-24T04:30:01.037Z,4.80
2022-11-24T04:32:28.653Z,6.35
2022-11-24T04:34:55.810Z,5.70
2022-11-24T04:37:23.085Z,5.95
2022-11-24T04:39:50.386Z,5.32
2022-11-24T04:42:17.453Z,5.53
2022-11-24T04:44:44.556Z,5.22
2022-11-24T04:47:21.310Z,4.95
2022-11-24T04:49:51.183Z,5.13
2022-11-24T04:52:20.160Z,5.63
2022-11-24T04:54:48.001Z,5.88
2022-11-24T04:57:25.553Z,5.50
2022-11-24T04:59:52.982Z,5.78
2022-11-24T05:02:20.661Z,5.22
2022-11-24T05:04:48.579Z,4.97
2022-11-24T05:07:19.070Z,4.95
2022-11-24T05:10:06.013Z,5.40
2022-11-24T05:12:33.233Z,5.47
2022-11-24T05:15:04.647Z,5.88
2022-11-24T05:17:34.420Z,5.82
2022-11-24T05:20:02.074Z,4.97
2022-11-24T05:22:29.960Z,4.90
2022-11-24T05:24:57.103Z,4.95
2022-11-24T05:27:24.136Z,5.03
2022-11-24T05:29:51.211Z,5.15
2022-11-24T05:32:18.283Z,5.07
2022-11-24T05:34:45.433Z,4.28
2022-11-24T05:40:15.406Z,5.30
2022-11-24T05:46:17.022Z,5.20
2022-11-24T05:48:45.317Z,4.35
2022-11-24T05:51:12.899Z,4.15
2022-11-24T05:53:40.786Z,5.18
2022-11-24T05:56:08.749Z,5.25
2022-11-24T05:58:36.557Z,4.43
2022-11-24T06:01:07.491Z,4.90
2022-11-24T06:38:53.162Z,4.22
2022-11-24T06:41:21.061Z,3.58
2022-11-24T06:43:48.881Z,3.97
2022-11-24T06:49:12.314Z,3.15
2022-11-24T06:51:39.935Z,2.92
2022-11-24T06:54:08.184Z,3.55
2022-11-24T06:56:35.533Z,2.83
2022-11-24T07:01:57.708Z,3.05
2022-11-24T07:04:24.911Z,2.92
2022-11-24T07:06:51.936Z,3.78
2022-11-24T07:09:18.990Z,3.45
2022-11-24T07:11:46.147Z,3.40
2022-11-24T07:14:13.304Z,2.58
2022-11-24T07:16:40.842Z,3.53
2022-11-24T07:19:10.635Z,2.88
2022-11-24T07:21:37.664Z,3.90
2022-11-24T07:24:05.144Z,3.50
2022-11-24T07:26:37.192Z,3.47
2022-11-24T07:29:05.428Z,3.35
2022-11-24T07:31:32.665Z,3.80
2022-11-24T07:33:59.725Z,3.00
2022-11-24T07:36:26.848Z,3.25
2022-11-24T07:38:53.993Z,3.00
2022-11-24T07:41:21.128Z,3.05
2022-11-24T07:43:49.120Z,2.85
2022-11-24T07:46:19.367Z,2.55
2022-11-24T07:48:47.005Z,3.00
2022-11-24T07:51:14.033Z,3.53
2022-11-24T07:53:41.149Z,4.15
2022-11-24T07:56:09.764Z,3.13
2022-11-24T07:58:37.607Z,3.63
2022-11-24T08:01:16.401Z,2.83
2022-11-24T08:03:45.004Z,3.17
2022-11-24T08:06:35.885Z,3.42
2022-11-24T08:09:00.030Z,3.35
2022-11-24T08:11:27.922Z,3.10
2022-11-24T08:13:54.869Z,3.05
2022-11-24T08:16:21.827Z,3.33
2022-11-24T08:18:56.242Z,3.80
2022-11-24T08:21:24.429Z,4.05
2022-11-24T08:23:56.441Z,4.18
2022-11-24T08:26:26.499Z,3.70
2022-11-24T08:28:57.284Z,3.08
2022-11-24T08:31:27.785Z,3.90
2022-11-24T08:33:56.894Z,3.63
2022-11-24T08:36:25.099Z,3.83
2022-11-24T08:38:58.669Z,3.15
2022-11-24T08:41:28.781Z,3.72
2022-11-24T08:43:57.051Z,4.03
2022-11-24T08:46:26.487Z,4.75
2022-11-24T08:48:56.736Z,3.88
2022-11-24T08:51:27.719Z,4.43
2022-11-24T08:54:01.199Z,3.90
2022-11-24T08:56:32.234Z,4.60
2022-11-24T08:59:01.303Z,4.20
2022-11-24T09:01:32.901Z,4.85
2022-11-24T09:04:00.823Z,5.15
2022-11-24T09:06:32.034Z,4.95
2022-11-24T09:09:00.466Z,4.35
2022-11-24T09:11:28.297Z,5.47
2022-11-24T09:14:00.705Z,4.70
2022-11-24T09:16:32.509Z,5.03
2022-11-24T09:19:05.509Z,5.43
2022-11-24T09:21:38.089Z,5.95
2022-11-24T09:24:10.346Z,5.78
2022-11-24T09:26:46.090Z,5.70
2022-11-24T09:29:15.792Z,5.97
2022-11-24T09:31:44.121Z,6.15
2022-11-24T09:34:16.284Z,9.18
2022-11-24T09:36:44.548Z,6.95
2022-11-24T09:39:12.829Z,6.00
2022-11-24T09:41:55.960Z,6.38
2022-11-24T09:45:00.297Z,7.28
2022-11-24T09:47:56.144Z,6.13
2022-11-24T09:50:32.186Z,6.32
2022-11-24T09:53:18.450Z,6.22
2022-11-24T09:56:04.343Z,6.55
2022-11-24T09:58:54.068Z,8.27
2022-11-24T10:01:31.877Z,8.07
2022-11-24T10:04:06.302Z,10.57
2022-11-24T10:06:48.994Z,12.35
2022-11-24T10:09:36.706Z,14.60
2022-11-24T10:12:10.813Z,8.98
2022-11-24T10:15:14.800Z,8.52
2022-11-24T10:18:05.157Z,8.48
2022-11-24T10:20:56.137Z,8.02
2022-11-24T10:23:46.862Z,8.52
2022-11-24T10:26:48.112Z,6.95
2022-11-24T10:29:42.144Z,5.57
2022-11-24T10:32:43.202Z,7.32
2022-11-24T10:35:23.936Z,6.72
2022-11-24T10:38:00.728Z,9.88
2022-11-24T10:43:29.735Z,10.43
2022-11-24T10:46:16.386Z,11.15
2022-11-24T10:49:07.198Z,11.35
2022-11-24T10:51:46.587Z,9.63
2022-11-24T10:54:22.498Z,13.02
2022-11-24T10:56:54.868Z,15.90
2022-11-24T10:59:31.345Z,12.23
2022-11-24T11:02:02.915Z,11.25
2022-11-24T11:04:35.204Z,10.90
2022-11-24T11:09:41.080Z,11.13
2022-11-24T11:12:43.489Z,12.07
2022-11-24T11:15:35.097Z,11.25
2022-11-24T11:18:08.748Z,9.85
2022-11-24T11:20:38.575Z,8.90
2022-11-24T11:23:39.713Z,11.15
2022-11-24T11:26:58.606Z,9.88
2022-11-24T11:35:14.539Z,7.55
2022-11-24T11:37:45.658Z,7.35
2022-11-24T11:40:24.203Z,6.13
2022-11-24T11:43:06.863Z,6.05
2022-11-24T11:45:38.518Z,6.13
2022-11-24T11:48:18.493Z,6.75
2022-11-24T11:54:18.139Z,6.55
2022-11-24T11:56:52.257Z,7.77
2022-11-24T11:59:40.089Z,6.25
2022-11-24T12:02:23.812Z,5.68
2022-11-24T12:04:59.493Z,6.25
2022-11-24T12:07:47.412Z,5.97
2022-11-24T12:10:25.251Z,7.10
2022-11-24T12:13:19.513Z,8.13
2022-11-24T12:15:50.290Z,7.25
2022-11-24T12:18:55.912Z,6.70
2022-11-24T12:21:26.462Z,8.20
2022-11-24T12:24:18.999Z,5.85
2022-11-24T12:26:53.686Z,7.67
2022-11-24T12:29:33.009Z,5.90
2022-11-24T12:32:47.918Z,6.97
2022-11-24T12:35:37.708Z,5.70
2022-11-24T12:38:28.270Z,5.70
2022-11-24T12:41:33.248Z,5.05
2022-11-24T12:43:53.306Z,5.43
2022-11-24T12:46:45.355Z,5.40
2022-11-24T12:49:47.455Z,5.00
2022-11-24T12:52:18.366Z,5.60
2022-11-24T12:54:46.693Z,5.70
2022-11-24T12:57:34.789Z,5.85
2022-11-24T13:00:17.205Z,6.15
2022-11-24T13:02:56.615Z,5.20
2022-11-24T13:05:23.567Z,5.70
2022-11-24T13:08:01.074Z,5.85
2022-11-24T13:13:30.256Z,5.85
2022-11-24T13:16:35.153Z,6.18
2022-11-24T13:19:02.853Z,5.50
2022-11-24T13:21:45.990Z,5.53
2022-11-24T13:24:19.202Z,6.05
2022-11-24T13:26:49.101Z,5.47
2022-11-24T13:29:34.464Z,6.00
2022-11-24T13:32:29.232Z,5.72
2022-11-24T13:35:13.711Z,4.68
2022-11-24T13:37:42.077Z,5.30
2022-11-24T13:40:12.179Z,6.40
2022-11-24T13:42:54.425Z,5.95
2022-11-24T13:45:39.858Z,6.35
2022-11-24T13:48:22.475Z,6.40
2022-11-24T13:50:50.071Z,7.25
2022-11-24T13:53:32.176Z,6.15
2022-11-24T13:56:14.307Z,6.70
2022-11-24T13:58:46.534Z,7.80
2022-11-24T14:01:16.487Z,7.45
2022-11-24T14:04:33.648Z,6.82
2022-11-24T14:07:08.699Z,7.95
2022-11-24T14:09:39.016Z,7.88
2022-11-24T14:12:16.898Z,6.35
2022-11-24T14:15:13.925Z,7.82
2022-11-24T14:17:43.158Z,9.90
2022-11-24T14:20:29.674Z,9.25
2022-11-24T14:22:58.443Z,8.15
2022-11-24T14:25:32.566Z,9.50
2022-11-24T14:28:01.135Z,8.82
2022-11-24T14:30:28.835Z,9.18
2022-11-24T14:33:00.487Z,10.23
2022-11-24T14:35:44.445Z,10.80
2022-11-24T14:38:13.180Z,10.65
2022-11-24T14:40:53.473Z,9.30
2022-11-24T14:43:27.100Z,10.75
2022-11-24T14:46:00.387Z,9.65
2022-11-24T14:48:33.747Z,8.90
2022-11-24T14:51:18.759Z,10.52
2022-11-24T14:53:50.322Z,9.32
2022-11-24T14:56:27.950Z,9.93
2022-11-24T14:58:59.028Z,11.82
2022-11-24T15:01:33.298Z,8.02
2022-11-24T15:04:39.005Z,9.73
2022-11-24T15:07:31.928Z,9.05
2022-11-24T15:10:02.243Z,7.65
2022-11-24T15:12:31.129Z,8.00
2022-11-24T15:15:03.425Z,8.85
2022-11-24T15:17:31.320Z,7.65
2022-11-24T15:20:03.783Z,7.10
2022-11-24T15:22:40.700Z,6.38
2022-11-24T15:25:26.448Z,6.90
2022-11-24T15:27:53.694Z,6.13
2022-11-24T15:30:21.418Z,6.70
2022-11-24T15:32:59.755Z,5.95
2022-11-24T15:35:33.929Z,6.40
2022-11-24T15:38:01.465Z,7.43
2022-11-24T15:40:28.880Z,7.18
2022-11-24T15:43:00.780Z,5.65
2022-11-24T15:45:34.803Z,6.43
2022-11-24T15:48:02.112Z,6.88
2022-11-24T15:50:29.831Z,5.70
2022-11-24T15:52:58.037Z,6.95
2022-11-24T15:55:25.481Z,5.40
2022-11-24T15:57:53.191Z,5.35
2022-11-24T16:00:23.668Z,6.22
2022-11-24T16:02:51.427Z,5.85
2022-11-24T16:05:19.118Z,5.28
2022-11-24T16:07:46.492Z,5.43
2022-11-24T16:10:36.354Z,5.63
2022-11-24T16:13:06.624Z,5.75
2022-11-24T16:15:34.512Z,5.55
2022-11-24T16:18:08.498Z,5.30
2022-11-24T16:20:38.577Z,5.50
2022-11-24T16:23:08.095Z,5.45
2022-11-24T16:25:38.568Z,5.93
2022-11-24T16:28:08.886Z,6.43
2022-11-24T16:30:39.828Z,6.70
2022-11-24T16:33:12.700Z,7.28
2022-11-24T16:35:42.875Z,7.85
2022-11-24T16:38:23.031Z,7.15
2022-11-24T16:40:57.053Z,7.22
2022-11-24T16:43:27.583Z,6.97
2022-11-24T16:46:20.471Z,6.55
2022-11-24T16:48:50.134Z,7.35
2022-11-24T16:51:18.991Z,7.50
2022-11-24T16:53:47.074Z,7.13
2022-11-24T16:56:16.706Z,7.18
2022-11-24T16:58:44.442Z,7.40
2022-11-24T17:01:13.641Z,8.30
2022-11-24T17:03:41.299Z,6.97
2022-11-24T17:06:13.432Z,7.65
2022-11-24T17:08:41.563Z,8.00
2022-11-24T17:11:20.337Z,8.18
2022-11-24T17:13:49.332Z,6.32
2022-11-24T17:16:21.718Z,7.28
2022-11-24T17:18:56.938Z,6.88
2022-11-24T17:21:28.065Z,6.85
2022-11-24T17:23:58.870Z,6.78
2022-11-24T17:26:28.086Z,6.72
2022-11-24T17:28:56.228Z,7.43
2022-11-24T17:31:27.660Z,5.60
2022-11-24T17:33:57.029Z,6.47
2022-11-24T17:36:25.477Z,6.53
2022-11-24T17:38:53.483Z,7.57
2022-11-24T17:41:22.168Z,6.95
2022-11-24T17:43:55.899Z,8.30
2022-11-24T17:46:24.779Z,6.53
2022-11-24T17:48:53.005Z,7.97
2022-11-24T17:51:23.020Z,7.70
2022-11-24T17:53:52.491Z,8.45
2022-11-24T17:56:23.978Z,9.07
2022-11-24T17:58:59.315Z,8.43
2022-11-24T18:01:30.339Z,8.32
2022-11-24T18:03:59.306Z,8.02
2022-11-24T18:06:29.058Z,9.20
2022-11-24T18:08:58.272Z,10.43
2022-11-24T18:11:31.531Z,9.43
2022-11-24T18:14:03.043Z,8.57
2022-11-24T18:16:35.380Z,8.43
2022-11-24T18:19:10.161Z,7.68
2022-11-24T18:21:42.583Z,7.35
2022-11-24T18:24:12.415Z,6.97
2022-11-24T18:26:42.213Z,7.00
2022-11-24T18:29:11.145Z,6.03
2022-11-24T18:31:40.008Z,5.90
2022-11-24T18:34:07.928Z,5.75
2022-11-24T18:36:36.666Z,4.80
2022-11-24T18:39:09.994Z,5.47
2022-11-24T18:41:38.664Z,4.22
2022-11-24T18:44:08.769Z,4.72
2022-11-24T18:46:37.575Z,5.00
2022-11-24T18:49:06.572Z,4.68
2022-11-24T18:51:34.189Z,5.18
2022-11-24T18:54:03.624Z,4.97
2022-11-24T18:56:31.827Z,5.10
2022-11-24T18:59:00.242Z,5.32
2022-11-24T19:01:29.297Z,6.40
2022-11-24T19:03:59.313Z,7.28
2022-11-24T19:06:35.590Z,5.72
2022-11-24T19:09:09.628Z,5.90
2022-11-24T19:11:39.185Z,5.70
